Time;durP1;ratioP1;P1;durP2;ratioP2;P2;SDS_P1;SDS_P2;PMS_P1;PMS_P2;Temp;Humidity;BMP_temperature;BMP_pressure;BME280_temperature;BME280_humidity;BME280_pressure;Samples;Min_cycle;Max_cycle;Signal;HPM_P1;HPM_P2
2022/07/12 00:02:13;;;;;;;9.20;3.35;;;;;;;-147.76;100.00;60361.69;5096334;28;20105;-73
2022/07/12 00:04:41;;;;;;;11.43;3.20;;;;;;;-147.76;100.00;60361.69;5095645;28;20055;-73
2022/07/12 00:07:10;;;;;;;16.17;3.80;;;;;;;-147.76;100.00;60361.69;5095987;28;20054;-73
2022/07/12 00:09:37;;;;;;;16.23;3.55;;;;;;;-147.76;100.00;60361.69;5095855;28;20048;-73
2022/07/12 00:12:05;;;;;;;13.88;3.67;;;;;;;-147.76;100.00;60361.69;5095818;28;20044;-74
2022/07/12 00:14:33;;;;;;;13.77;3.40;;;;;;;-147.76;100.00;60361.69;5095596;28;20097;-74
2022/07/12 00:17:02;;;;;;;13.48;3.58;;;;;;;-147.76;100.00;60361.69;5095823;28;20051;-73
2022/07/12 00:19:30;;;;;;;16.17;3.72;;;;;;;-147.76;100.00;60361.69;5094891;28;20043;-73
2022/07/12 00:21:57;;;;;;;13.55;3.00;;;;;;;-147.76;100.00;60361.69;5095597;28;20040;-74
2022/07/12 00:24:26;;;;;;;12.55;3.15;;;;;;;-147.76;100.00;60361.69;5095418;28;20445;-73
2022/07/12 00:26:54;;;;;;;13.02;3.10;;;;;;;-147.76;100.00;60361.69;5095576;28;20044;-73
2022/07/12 00:29:21;;;;;;;13.23;3.45;;;;;;;-147.76;100.00;60361.69;5095621;28;20478;-74
2022/07/12 00:31:49;;;;;;;16.05;4.38;;;;;;;-147.76;100.00;60361.69;5094821;28;20040;-73
2022/07/12 00:34:16;;;;;;;10.98;2.80;;;;;;;-147.76;100.00;60361.69;5095014;28;20057;-73
2022/07/12 00:36:44;;;;;;;12.93;3.38;;;;;;;-147.76;100.00;60361.69;5094932;28;20044;-73
2022/07/12 00:39:11;;;;;;;11.35;3.25;;;;;;;-147.76;100.00;60361.69;5095250;28;20123;-73
2022/07/12 00:41:42;;;;;;;18.67;3.63;;;;;;;-147.76;100.00;60361.69;5094451;28;20400;-74
2022/07/12 00:44:10;;;;;;;15.52;3.20;;;;;;;-147.76;100.00;60361.69;5095142;28;20051;-73
2022/07/12 00:46:37;;;;;;;14.27;3.45;;;;;;;-147.76;100.00;60361.69;5094007;28;20048;-73
2022/07/12 00:49:05;;;;;;;14.77;3.22;;;;;;;-147.76;100.00;60361.69;5094405;28;20060;-73
2022/07/12 00:51:33;;;;;;;16.50;4.53;;;;;;;-147.76;100.00;60361.69;5094826;28;20520;-73
2022/07/12 00:54:01;;;;;;;15.40;3.83;;;;;;;-147.76;100.00;60361.69;5094649;28;20040;-74
2022/07/12 00:56:29;;;;;;;10.73;3.42;;;;;;;-147.76;100.00;60361.69;5094830;28;20044;-74
2022/07/12 00:58:58;;;;;;;13.93;3.50;;;;;;;-147.76;100.00;60361.69;5095004;28;20389;-73
2022/07/12 01:01:25;;;;;;;12.90;3.17;;;;;;;-147.76;100.00;60361.69;5094648;28;20043;-73
2022/07/12 01:03:53;;;;;;;11.63;3.83;;;;;;;-147.76;100.00;60361.69;5094521;28;20036;-73
2022/07/12 01:06:21;;;;;;;17.15;3.05;;;;;;;-147.76;100.00;60361.69;5094657;28;20484;-73
2022/07/12 01:08:49;;;;;;;11.55;3.42;;;;;;;-147.76;100.00;60361.69;5094707;28;20055;-74
2022/07/12 01:11:17;;;;;;;12.68;3.00;;;;;;;-147.76;100.00;60361.69;5094867;28;20097;-73
2022/07/12 01:13:45;;;;;;;11.48;3.15;;;;;;;-147.76;100.00;60361.69;5094673;28;20101;-73
2022/07/12 01:16:14;;;;;;;11.45;2.83;;;;;;;-147.76;100.00;60361.69;5094576;28;20040;-74
2022/07/12 01:18:42;;;;;;;8.82;3.00;;;;;;;-147.76;100.00;60361.69;5094150;28;20048;-74
2022/07/12 01:21:11;;;;;;;9.73;2.90;;;;;;;-147.76;100.00;60361.69;5094536;28;20044;-74
2022/07/12 01:23:40;;;;;;;7.75;2.80;;;;;;;-147.76;100.00;60361.69;5094462;28;20047;-73
2022/07/12 01:26:08;;;;;;;9.77;2.60;;;;;;;-147.76;100.00;60361.69;5094355;28;20055;-73
2022/07/12 01:28:36;;;;;;;6.93;2.50;;;;;;;-147.76;100.00;60361.69;5094494;28;20075;-74
2022/07/12 01:31:03;;;;;;;9.23;2.40;;;;;;;-147.76;100.00;60361.69;5094370;28;20515;-73
2022/07/12 01:33:31;;;;;;;8.73;2.65;;;;;;;-147.76;100.00;60361.69;5093708;28;20105;-73
2022/07/12 01:35:58;;;;;;;8.45;2.60;;;;;;;-147.76;100.00;60361.69;5094381;28;20055;-73
2022/07/12 01:38:26;;;;;;;13.27;2.60;;;;;;;-147.76;100.00;60361.69;5094329;28;20039;-73
2022/07/12 01:40:55;;;;;;;16.20;3.00;;;;;;;-147.76;100.00;60361.69;5093982;28;20100;-73
2022/07/12 01:43:22;;;;;;;10.15;2.80;;;;;;;-147.76;100.00;60361.69;5093930;28;20044;-74
2022/07/12 01:45:50;;;;;;;12.88;2.50;;;;;;;-147.76;100.00;60361.69;5093945;28;20043;-73
2022/07/12 01:48:18;;;;;;;14.70;2.85;;;;;;;-147.76;100.00;60361.69;5093715;28;20040;-73
2022/07/12 01:50:46;;;;;;;11.00;2.65;;;;;;;-147.76;100.00;60361.69;5094284;28;20048;-73
2022/07/12 01:53:15;;;;;;;12.35;3.05;;;;;;;-147.76;100.00;60361.69;5093843;28;20452;-73
2022/07/12 01:55:42;;;;;;;15.68;3.03;;;;;;;-147.76;100.00;60361.69;5093155;28;20413;-73
2022/07/12 01:58:13;;;;;;;14.98;3.45;;;;;;;-147.76;100.00;60361.69;5092842;28;20097;-73
2022/07/12 02:00:41;;;;;;;18.85;3.95;;;;;;;-147.76;100.00;60361.69;5094399;28;20051;-74
2022/07/12 02:03:08;;;;;;;21.10;4.20;;;;;;;-147.76;100.00;60361.69;5093793;28;20071;-73
2022/07/12 02:05:36;;;;;;;14.05;4.10;;;;;;;-147.76;100.00;60361.69;5093635;28;20077;-74
2022/07/12 02:08:03;;;;;;;14.55;3.95;;;;;;;-147.76;100.00;60361.69;5093671;28;20467;-74
2022/07/12 02:10:31;;;;;;;11.25;4.10;;;;;;;-147.76;100.00;60361.69;5093734;28;20047;-74
2022/07/12 02:12:59;;;;;;;18.23;4.18;;;;;;;-147.76;100.00;60361.69;5093576;28;20044;-73
2022/07/12 02:15:28;;;;;;;17.00;3.85;;;;;;;-147.76;100.00;60361.69;5093289;28;20113;-73
2022/07/12 02:17:55;;;;;;;11.77;3.60;;;;;;;-147.76;100.00;60361.69;5093377;28;20562;-73
2022/07/12 02:20:23;;;;;;;11.10;3.50;;;;;;;-147.76;100.00;60361.69;5093509;28;20044;-73
2022/07/12 02:22:50;;;;;;;15.40;3.90;;;;;;;-147.76;100.00;60361.69;5093388;28;20071;-74
2022/07/12 02:25:18;;;;;;;11.98;3.53;;;;;;;-147.76;100.00;60361.69;5093604;28;20051;-74
2022/07/12 02:27:45;;;;;;;14.18;3.78;;;;;;;-147.76;100.00;60361.69;5093493;28;20048;-73
2022/07/12 02:30:13;;;;;;;12.55;3.42;;;;;;;-147.76;100.00;60361.69;5093110;28;20067;-73
2022/07/12 02:32:42;;;;;;;13.90;3.45;;;;;;;-147.76;100.00;60361.69;5093292;28;20105;-74
2022/07/12 02:35:10;;;;;;;20.58;4.63;;;;;;;-147.76;100.00;60361.69;5093303;28;20145;-74
2022/07/12 02:37:37;;;;;;;18.23;4.95;;;;;;;-147.76;100.00;60361.69;5093553;28;20074;-73
2022/07/12 02:42:51;;;;;;;9.77;3.67;;;;;;;-147.76;100.00;60361.69;5093146;28;20490;-73
2022/07/12 02:45:18;;;;;;;12.25;3.63;;;;;;;-147.76;100.00;60361.69;5092933;28;20127;-73
2022/07/12 02:47:47;;;;;;;12.57;3.65;;;;;;;-147.76;100.00;60361.69;5093298;28;20051;-74
2022/07/12 02:50:15;;;;;;;13.52;3.63;;;;;;;-147.76;100.00;60361.69;5093123;28;20056;-73
2022/07/12 02:52:42;;;;;;;13.77;3.88;;;;;;;-147.76;100.00;60361.69;5093031;28;20051;-74
2022/07/12 02:55:10;;;;;;;15.27;4.30;;;;;;;-147.76;100.00;60361.69;5093075;28;20044;-74
2022/07/12 02:57:37;;;;;;;15.07;4.03;;;;;;;-147.76;100.00;60361.69;5093387;28;20044;-73
2022/07/12 03:00:06;;;;;;;12.82;3.60;;;;;;;-147.76;100.00;60361.69;5093013;28;20048;-74
2022/07/12 03:02:34;;;;;;;13.75;4.93;;;;;;;-147.76;100.00;60361.69;5093210;28;20050;-73
2022/07/12 03:05:03;;;;;;;17.70;4.30;;;;;;;-147.76;100.00;60361.69;5093227;28;20044;-73
2022/07/12 03:07:30;;;;;;;12.70;3.55;;;;;;;-147.76;100.00;60361.69;5093045;28;20050;-73
2022/07/12 03:09:58;;;;;;;11.63;3.60;;;;;;;-147.76;100.00;60361.69;5095868;28;20414;-74
2022/07/12 03:12:25;;;;;;;9.23;3.60;;;;;;;-147.76;100.00;60361.69;5096798;28;20101;-73
2022/07/12 03:14:53;;;;;;;16.10;4.13;;;;;;;-147.76;100.00;60361.69;5096282;28;20044;-73
2022/07/12 03:17:20;;;;;;;12.93;3.80;;;;;;;-147.76;100.00;60361.69;5095108;28;20175;-74
2022/07/12 03:19:48;;;;;;;10.02;3.67;;;;;;;-147.76;100.00;60361.69;5096657;28;20048;-74
2022/07/12 03:22:17;;;;;;;14.50;3.70;;;;;;;-147.76;100.00;60361.69;5096712;28;20543;-73
2022/07/12 03:24:44;;;;;;;13.43;4.18;;;;;;;-147.76;100.00;60361.69;5096596;28;20606;-74
2022/07/12 03:27:12;;;;;;;11.23;4.28;;;;;;;-147.76;100.00;60361.69;5096712;28;20086;-74
2022/07/12 03:29:40;;;;;;;8.38;4.00;;;;;;;-147.76;100.00;60361.69;5096157;28;20048;-73
2022/07/12 03:32:08;;;;;;;13.18;4.20;;;;;;;-147.76;100.00;60361.69;5096578;28;20098;-74
2022/07/12 03:34:36;;;;;;;11.30;4.47;;;;;;;-147.76;100.00;60361.69;5096366;28;20044;-73
2022/07/12 03:37:03;;;;;;;10.52;3.90;;;;;;;-147.76;100.00;60361.69;5096511;28;20066;-74
2022/07/12 03:39:32;;;;;;;9.52;4.25;;;;;;;-147.76;100.00;60361.69;5096870;28;20067;-74
2022/07/12 03:42:00;;;;;;;10.15;4.30;;;;;;;-147.76;100.00;60361.69;5095723;28;20046;-73
2022/07/12 03:44:30;;;;;;;10.40;3.92;;;;;;;-147.76;100.00;60361.69;5095078;28;20067;-73
2022/07/12 03:46:58;;;;;;;9.98;4.43;;;;;;;-147.76;100.00;60361.69;5095536;28;20047;-74
2022/07/12 03:49:26;;;;;;;12.32;4.53;;;;;;;-147.76;100.00;60361.69;5096048;28;20060;-73
2022/07/12 03:51:53;;;;;;;10.77;4.40;;;;;;;-147.76;100.00;60361.69;5096179;28;20044;-74
2022/07/12 03:54:20;;;;;;;11.63;4.40;;;;;;;-147.76;100.00;60361.69;5095952;28;20044;-73
2022/07/12 03:59:34;;;;;;;12.75;4.55;;;;;;;-147.76;100.00;60361.69;5097622;28;20392;-73
2022/07/12 04:02:02;;;;;;;9.98;4.35;;;;;;;-147.76;100.00;60361.69;5095964;28;20067;-73
2022/07/12 04:04:30;;;;;;;11.10;5.00;;;;;;;-147.76;100.00;60361.69;5095996;28;20040;-73
2022/07/12 04:06:57;;;;;;;9.57;4.80;;;;;;;-147.76;100.00;60361.69;5096033;28;20044;-74
2022/07/12 04:09:25;;;;;;;11.52;4.70;;;;;;;-147.76;100.00;60361.69;5095672;28;20439;-73
2022/07/12 04:11:54;;;;;;;12.65;5.10;;;;;;;-147.76;100.00;60361.69;5095560;28;20040;-73
2022/07/12 04:14:21;;;;;;;10.38;4.95;;;;;;;-147.76;100.00;60361.69;5095790;28;20048;-74
2022/07/12 04:16:49;;;;;;;13.57;4.80;;;;;;;-147.76;100.00;60361.69;5095930;28;20070;-73
2022/07/12 04:19:17;;;;;;;11.27;4.88;;;;;;;-147.76;100.00;60361.69;5112015;28;20047;-74
2022/07/12 04:21:44;;;;;;;13.50;5.15;;;;;;;-147.76;100.00;60361.69;5113421;28;20039;-73
2022/07/12 04:24:12;;;;;;;11.00;5.18;;;;;;;-147.76;100.00;60361.69;5095711;28;20090;-73
2022/07/12 04:26:39;;;;;;;12.88;5.30;;;;;;;-147.76;100.00;60361.69;5095005;28;20051;-73
2022/07/12 04:29:08;;;;;;;11.45;5.07;;;;;;;-147.76;100.00;60361.69;5095601;28;20493;-73
2022/07/12 04:31:35;;;;;;;13.70;5.50;;;;;;;-147.76;100.00;60361.69;5095418;28;20043;-73
2022/07/12 04:34:03;;;;;;;11.27;5.85;;;;;;;-147.76;100.00;60361.69;5095418;28;20048;-74
2022/07/12 04:36:31;;;;;;;10.55;5.55;;;;;;;-147.76;100.00;60361.69;5095359;28;20055;-73
2022/07/12 04:38:58;;;;;;;12.30;5.50;;;;;;;-147.76;100.00;60361.69;5095155;28;20044;-74
2022/07/12 04:41:26;;;;;;;12.35;5.35;;;;;;;-147.76;100.00;60361.69;5094754;28;20101;-74
2022/07/12 04:43:53;;;;;;;10.93;5.43;;;;;;;-147.76;100.00;60361.69;5094930;28;20052;-74
2022/07/12 04:46:22;;;;;;;11.93;5.70;;;;;;;-147.76;100.00;60361.69;5095096;28;20048;-74
2022/07/12 04:48:49;;;;;;;11.57;5.47;;;;;;;-147.76;100.00;60361.69;5094926;28;20079;-74
2022/07/12 04:51:17;;;;;;;10.82;5.35;;;;;;;-147.76;100.00;60361.69;5095096;28;20098;-76
2022/07/12 04:53:45;;;;;;;11.60;6.00;;;;;;;-147.76;100.00;60361.69;5095279;28;20094;-74
2022/07/12 04:56:12;;;;;;;10.25;5.57;;;;;;;-147.76;100.00;60361.69;5094728;28;20051;-73
2022/07/12 04:58:40;;;;;;;10.52;5.60;;;;;;;-147.76;100.00;60361.69;5094771;28;20489;-82
2022/07/12 05:01:08;;;;;;;12.35;6.20;;;;;;;-147.76;100.00;60361.69;5094765;28;20443;-78
2022/07/12 05:03:37;;;;;;;10.50;6.22;;;;;;;-147.76;100.00;60361.69;5095045;28;20493;-77
2022/07/12 05:06:05;;;;;;;11.43;5.60;;;;;;;-147.76;100.00;60361.69;5094585;28;20048;-77
2022/07/12 05:08:34;;;;;;;11.00;5.88;;;;;;;-147.76;100.00;60361.69;5094995;28;20048;-79
2022/07/12 05:11:01;;;;;;;12.32;5.55;;;;;;;-147.76;100.00;60361.69;5094356;28;20040;-78
2022/07/12 05:13:29;;;;;;;10.63;6.57;;;;;;;-147.76;100.00;60361.69;5094518;28;20044;-76
2022/07/12 05:15:56;;;;;;;10.60;5.30;;;;;;;-147.76;100.00;60361.69;5094487;28;20051;-80
2022/07/12 05:18:24;;;;;;;9.98;5.05;;;;;;;-147.76;100.00;60361.69;5094532;28;20044;-79
2022/07/12 05:20:53;;;;;;;10.55;5.32;;;;;;;-147.76;100.00;60361.69;5113954;28;20047;-77
2022/07/12 05:23:20;;;;;;;12.23;5.82;;;;;;;-147.76;100.00;60361.69;5098379;28;20051;-77
2022/07/12 05:25:48;;;;;;;11.88;5.32;;;;;;;-147.76;100.00;60361.69;5094146;28;20048;-78
2022/07/12 05:28:16;;;;;;;10.93;5.35;;;;;;;-147.76;100.00;60361.69;5094379;28;20048;-79
2022/07/12 05:30:43;;;;;;;11.90;5.35;;;;;;;-147.76;100.00;60361.69;5094314;28;20067;-79
2022/07/12 05:33:12;;;;;;;10.77;5.10;;;;;;;-147.76;100.00;60361.69;5093790;28;20485;-73
2022/07/12 05:35:39;;;;;;;10.27;5.10;;;;;;;-147.76;100.00;60361.69;5093247;28;20067;-72
2022/07/12 05:38:08;;;;;;;11.05;4.70;;;;;;;-147.76;100.00;60361.69;5093796;28;20055;-73
2022/07/12 05:40:35;;;;;;;12.55;5.00;;;;;;;-147.76;100.00;60361.69;5093936;28;20044;-73
2022/07/12 05:43:03;;;;;;;11.93;5.18;;;;;;;-147.76;100.00;60361.69;5094001;28;20089;-73
2022/07/12 05:45:30;;;;;;;9.75;4.53;;;;;;;-147.76;100.00;60361.69;5093900;28;20416;-72
2022/07/12 05:47:58;;;;;;;11.68;5.10;;;;;;;-147.76;100.00;60361.69;5093951;28;20044;-73
2022/07/12 05:50:26;;;;;;;8.57;4.70;;;;;;;-147.76;100.00;60361.69;5094032;28;20063;-73
2022/07/12 05:55:39;;;;;;;8.15;4.28;;;;;;;-147.76;100.00;60361.69;5094214;28;20040;-73
2022/07/12 05:58:07;;;;;;;8.65;4.85;;;;;;;-147.76;100.00;60361.69;5093765;28;20070;-73
2022/07/12 06:00:34;;;;;;;9.85;4.90;;;;;;;-147.76;100.00;60361.69;5093791;28;20055;-73
2022/07/12 06:03:02;;;;;;;8.73;4.80;;;;;;;-147.76;100.00;60361.69;5093675;28;20048;-73
2022/07/12 06:05:29;;;;;;;9.48;4.90;;;;;;;-147.76;100.00;60361.69;5093792;28;20039;-73
2022/07/12 06:07:57;;;;;;;10.55;5.07;;;;;;;-147.76;100.00;60361.69;5093300;28;20047;-73
2022/07/12 06:10:25;;;;;;;9.15;5.25;;;;;;;-147.76;100.00;60361.69;5093488;28;20044;-73
2022/07/12 06:12:53;;;;;;;10.32;5.05;;;;;;;-147.76;100.00;60361.69;5093598;28;20439;-73
2022/07/12 06:15:21;;;;;;;8.98;4.80;;;;;;;-147.76;100.00;60361.69;5093415;28;20043;-73
2022/07/12 06:17:49;;;;;;;10.82;4.90;;;;;;;-147.76;100.00;60361.69;5093574;28;20106;-73
2022/07/12 06:20:16;;;;;;;9.85;4.75;;;;;;;-147.76;100.00;60361.69;5105846;28;20067;-73
2022/07/12 06:22:43;;;;;;;10.55;5.13;;;;;;;-147.76;100.00;60361.69;5102256;28;20048;-73
2022/07/12 06:25:11;;;;;;;13.10;5.13;;;;;;;-147.76;100.00;60361.69;5093440;28;20048;-73
2022/07/12 06:27:39;;;;;;;9.73;4.95;;;;;;;-147.76;100.00;60361.69;5093552;28;20073;-73
2022/07/12 06:30:09;;;;;;;10.45;5.15;;;;;;;-147.76;100.00;60361.69;5093348;28;20047;-73
2022/07/12 06:32:36;;;;;;;11.25;5.28;;;;;;;-147.76;100.00;60361.69;5094227;28;20409;-73
2022/07/12 06:35:04;;;;;;;11.07;4.90;;;;;;;-147.76;100.00;60361.69;5093362;28;20432;-73
2022/07/12 06:37:32;;;;;;;11.85;5.13;;;;;;;-147.76;100.00;60361.69;5092934;28;20040;-73
2022/07/12 06:40:00;;;;;;;10.40;5.22;;;;;;;-147.76;100.00;60361.69;5093210;28;20056;-72
2022/07/12 06:42:27;;;;;;;9.73;5.07;;;;;;;-147.76;100.00;60361.69;5092975;28;20553;-73
2022/07/12 06:44:54;;;;;;;10.98;5.00;;;;;;;-147.76;100.00;60361.69;5096163;28;20481;-73
2022/07/12 06:47:24;;;;;;;10.70;5.20;;;;;;;-147.76;100.00;60361.69;5097400;28;20057;-73
2022/07/12 06:49:51;;;;;;;9.43;5.22;;;;;;;-147.76;100.00;60361.69;5097110;28;20060;-73
2022/07/12 06:52:18;;;;;;;12.07;5.25;;;;;;;-147.76;100.00;60361.69;5097254;28;20126;-73
2022/07/12 06:54:46;;;;;;;10.57;4.85;;;;;;;-147.76;100.00;60361.69;5097430;28;20386;-73
2022/07/12 06:57:14;;;;;;;14.10;5.30;;;;;;;-147.76;100.00;60361.69;5097189;28;20052;-73
2022/07/12 06:59:41;;;;;;;10.43;4.88;;;;;;;-147.76;100.00;60361.69;5097309;28;20052;-73
2022/07/12 07:02:09;;;;;;;11.40;5.45;;;;;;;-147.76;100.00;60361.69;5097288;28;20040;-73
2022/07/12 07:04:38;;;;;;;8.77;4.85;;;;;;;-147.76;100.00;60361.69;5097120;28;20044;-73
2022/07/12 07:07:05;;;;;;;12.07;5.55;;;;;;;-147.76;100.00;60361.69;5096524;28;20485;-73
2022/07/12 07:09:33;;;;;;;13.45;6.65;;;;;;;-147.76;100.00;60361.69;5097083;28;20070;-73
2022/07/12 07:12:01;;;;;;;9.45;4.95;;;;;;;-147.76;100.00;60361.69;5096791;28;20048;-73
2022/07/12 07:14:29;;;;;;;12.88;6.28;;;;;;;-147.76;100.00;60361.69;5096877;28;20044;-73
2022/07/12 07:16:57;;;;;;;10.05;4.88;;;;;;;-147.76;100.00;60361.69;5097162;28;20512;-73
2022/07/12 07:19:26;;;;;;;9.75;5.07;;;;;;;-147.76;100.00;60361.69;5096717;28;20443;-73
2022/07/12 07:21:55;;;;;;;8.75;5.10;;;;;;;-147.76;100.00;60361.69;5096360;28;20046;-72
2022/07/12 07:24:23;;;;;;;9.40;4.70;;;;;;;-147.76;100.00;60361.69;5095823;28;20040;-73
2022/07/12 07:26:50;;;;;;;10.50;4.90;;;;;;;-147.76;100.00;60361.69;5096581;28;20044;-73
2022/07/12 07:32:04;;;;;;;10.18;4.30;;;;;;;-147.76;100.00;60361.69;5097176;28;20044;-73
2022/07/12 07:34:31;;;;;;;10.10;4.50;;;;;;;-147.76;100.00;60361.69;5096099;28;20043;-73
2022/07/12 07:37:00;;;;;;;8.18;4.07;;;;;;;-147.76;100.00;60361.69;5096576;28;20477;-73
2022/07/12 07:39:27;;;;;;;8.35;4.22;;;;;;;-147.76;100.00;60361.69;5096344;28;20044;-73
2022/07/12 07:41:55;;;;;;;11.52;4.70;;;;;;;-147.76;100.00;60361.69;5092463;28;20051;-73
2022/07/12 07:44:22;;;;;;;8.48;3.97;;;;;;;-147.76;100.00;60361.69;5092673;28;20055;-74
2022/07/12 07:46:50;;;;;;;9.55;4.47;;;;;;;-147.76;100.00;60361.69;5092231;28;20052;-73
2022/07/12 07:49:17;;;;;;;8.93;4.38;;;;;;;-147.76;100.00;60361.69;5092319;28;20056;-73
2022/07/12 07:51:45;;;;;;;8.25;4.07;;;;;;;-147.76;100.00;60361.69;5092712;28;20448;-74
2022/07/12 07:54:14;;;;;;;13.05;4.57;;;;;;;-147.76;100.00;60361.69;5092276;28;20043;-73
2022/07/12 07:56:41;;;;;;;10.10;4.43;;;;;;;-147.76;100.00;60361.69;5092712;28;20560;-73
2022/07/12 07:59:09;;;;;;;11.15;4.57;;;;;;;-147.76;100.00;60361.69;5092008;28;20497;-73
2022/07/12 08:01:52;;;;;;;15.32;4.75;;;;;;;-147.76;100.00;60361.69;5092518;28;20101;-73
2022/07/12 08:04:20;;;;;;;11.45;5.03;;;;;;;-147.76;100.00;60361.69;5092060;28;20044;-73
2022/07/12 08:06:48;;;;;;;9.15;4.60;;;;;;;-147.76;100.00;60361.69;5092331;28;20059;-73
2022/07/12 08:09:17;;;;;;;13.15;4.82;;;;;;;-147.76;100.00;60361.69;5091672;28;20044;-73
2022/07/12 08:11:45;;;;;;;11.20;4.88;;;;;;;-147.76;100.00;60361.69;5092245;28;20489;-73
2022/07/12 08:14:12;;;;;;;11.07;4.57;;;;;;;-147.76;100.00;60361.69;5091564;28;20047;-73
2022/07/12 08:16:40;;;;;;;11.05;5.22;;;;;;;20.43;49.69;99410.13;5091864;28;20048;-72
2022/07/12 08:19:08;;;;;;;8.10;4.30;;;;;;;15.75;100.00;99548.91;5091850;28;20102;-72
2022/07/12 08:21:35;;;;;;;10.57;4.95;;;;;;;15.80;100.00;99541.22;5102993;28;20127;-73
2022/07/12 08:24:03;;;;;;;10.10;4.85;;;;;;;15.88;100.00;99529.72;5092006;28;20050;-72
2022/07/12 08:26:32;;;;;;;8.15;4.13;;;;;;;15.87;100.00;99537.00;5091853;28;20076;-72
2022/07/12 08:29:00;;;;;;;10.57;4.18;;;;;;;15.88;100.00;99530.59;5092298;28;20147;-71
2022/07/12 08:31:27;;;;;;;8.65;3.90;;;;;;;15.87;100.00;99528.81;5092090;28;20055;-71
2022/07/12 08:33:55;;;;;;;7.93;4.05;;;;;;;15.84;100.00;99528.19;5091083;28;20072;-73
2022/07/12 08:36:23;;;;;;;12.23;4.57;;;;;;;15.84;100.00;99534.53;5091904;28;20059;-72
2022/07/12 08:38:50;;;;;;;11.68;4.82;;;;;;;15.86;100.00;99529.81;5091833;28;20048;-71
2022/07/12 08:41:18;;;;;;;10.43;4.45;;;;;;;15.86;100.00;99526.22;5091672;28;20039;-71
2022/07/12 08:43:47;;;;;;;9.77;3.90;;;;;;;15.86;100.00;99529.81;5091739;28;20048;-72
2022/07/12 08:46:15;;;;;;;11.98;5.10;;;;;;;15.89;100.00;99523.25;5091167;28;20464;-73
2022/07/12 08:48:44;;;;;;;8.40;3.97;;;;;;;15.87;100.00;99520.66;5091127;28;20048;-74
2022/07/12 08:51:13;;;;;;;8.15;3.75;;;;;;;15.93;100.00;99524.75;5092776;28;20590;-73
2022/07/12 08:53:42;;;;;;;12.52;4.35;;;;;;;15.96;100.00;99519.06;5090497;28;20047;-75
2022/07/12 08:56:33;;;;;;;14.77;4.88;;;;;;;15.98;100.00;99518.91;5091134;28;20443;-74
2022/07/12 08:59:16;;;;;;;10.38;4.50;;;;;;;16.02;100.00;99512.22;5076785;28;20052;-74
2022/07/12 09:01:47;;;;;;;9.40;4.57;;;;;;;16.02;100.00;99521.25;5102697;28;20546;-71
2022/07/12 09:04:19;;;;;;;8.60;4.45;;;;;;;16.10;100.00;99515.13;5107716;27;20039;-73
2022/07/12 09:06:47;;;;;;;10.75;4.22;;;;;;;16.10;100.00;99508.84;5103897;28;20111;-70
2022/07/12 09:09:27;;;;;;;12.75;4.25;;;;;;;16.14;100.00;99510.31;5103721;28;20040;-74
2022/07/12 09:11:55;;;;;;;11.73;4.50;;;;;;;16.15;100.00;99507.47;5102421;28;20044;-72
2022/07/12 09:14:26;;;;;;;10.25;4.15;;;;;;;16.24;100.00;99491.31;5102308;28;20056;-71
2022/07/12 09:17:02;;;;;;;11.05;4.35;;;;;;;16.23;100.00;99504.06;5100690;28;20123;-72
2022/07/12 09:19:31;;;;;;;10.52;4.40;;;;;;;16.24;100.00;99494.91;5103004;27;20036;-71
2022/07/12 09:21:59;;;;;;;8.68;4.22;;;;;;;16.28;100.00;99495.50;5106203;28;20039;-73
2022/07/12 09:24:28;;;;;;;15.60;5.25;;;;;;;16.30;100.00;99497.09;5103620;28;20044;-74
2022/07/12 09:26:59;;;;;;;10.38;3.60;;;;;;;16.33;100.00;99499.59;5103346;28;20131;-74
2022/07/12 09:29:41;;;;;;;10.07;3.92;;;;;;;16.35;100.00;99494.88;5102363;28;20067;-75
2022/07/12 09:37:42;;;;;;;5.43;3.13;;;;;;;16.36;98.32;99499.31;5116199;28;20044;-76
2022/07/12 09:40:10;;;;;;;9.52;3.25;;;;;;;16.38;98.50;99490.16;5114407;28;20044;-76
2022/07/12 09:42:37;;;;;;;8.65;3.75;;;;;;;16.40;98.55;99493.59;5096484;28;20040;-75
2022/07/12 09:45:09;;;;;;;8.75;3.40;;;;;;;16.41;97.83;99488.00;5093723;28;20515;-77
2022/07/12 09:47:37;;;;;;;8.35;3.47;;;;;;;16.46;98.04;99483.00;5095582;28;20047;-76
2022/07/12 09:50:06;;;;;;;11.13;3.70;;;;;;;16.46;97.36;99485.72;5093786;28;20059;-76
2022/07/12 09:52:33;;;;;;;7.32;3.88;;;;;;;16.46;97.70;99479.44;5093982;28;20059;-76
2022/07/12 09:55:04;;;;;;;5.35;3.10;;;;;;;16.53;97.47;99482.50;5093791;28;20048;-76
2022/07/12 09:57:32;;;;;;;6.20;3.20;;;;;;;16.53;96.83;99482.50;5093961;28;20048;-76
2022/07/12 10:00:01;;;;;;;7.20;3.30;;;;;;;16.53;97.65;99477.06;5093416;28;20044;-76
2022/07/12 10:02:30;;;;;;;6.90;3.45;;;;;;;16.62;97.44;99478.97;5093882;28;20093;-76
2022/07/12 10:04:59;;;;;;;8.05;2.92;;;;;;;16.64;96.14;99487.88;5093823;28;20055;-76
2022/07/12 10:07:27;;;;;;;9.82;3.38;;;;;;;16.64;96.34;99479.69;5093652;28;20051;-76
2022/07/12 10:09:55;;;;;;;12.30;2.95;;;;;;;16.68;94.38;99480.25;5093634;28;20447;-75
2022/07/12 10:12:23;;;;;;;8.68;2.72;;;;;;;16.65;95.31;99474.09;5093221;28;20071;-74
2022/07/12 10:14:56;;;;;;;6.22;2.88;;;;;;;16.71;94.66;99480.88;5072589;28;20379;-73
2022/07/12 10:17:24;;;;;;;7.47;2.70;;;;;;;16.75;94.21;99476.03;5073089;28;20048;-73
2022/07/12 10:20:17;;;;;;;8.13;2.80;;;;;;;16.75;93.53;99474.16;5072752;28;20053;-75
2022/07/12 10:22:44;;;;;;;7.43;2.60;;;;;;;16.80;93.43;99471.88;5080803;28;20044;-76
2022/07/12 10:25:29;;;;;;;6.97;2.90;;;;;;;16.81;92.94;99475.47;5088989;28;20079;-75
2022/07/12 10:27:58;;;;;;;7.25;2.70;;;;;;;16.86;91.63;99472.31;5090580;28;20055;-75
2022/07/12 10:30:25;;;;;;;6.00;2.83;;;;;;;16.82;92.27;99474.47;5100387;28;20122;-76
2022/07/12 10:32:56;;;;;;;4.70;2.58;;;;;;;16.85;92.04;99466.03;5109811;28;20062;-74
2022/07/12 10:35:27;;;;;;;9.45;2.90;;;;;;;16.85;91.85;99459.69;5110461;27;20412;-74
2022/07/12 10:38:25;;;;;;;5.18;2.63;;;;;;;16.86;92.12;99461.41;5109522;28;20522;-75
2022/07/12 10:40:53;;;;;;;7.38;2.80;;;;;;;16.87;92.29;99458.56;5025561;28;20086;-74
2022/07/12 10:46:22;;;;;;;5.05;2.50;;;;;;;16.92;91.15;99450.84;5009310;28;20058;-75
2022/07/12 10:48:50;;;;;;;6.82;2.80;;;;;;;16.91;90.41;99449.09;5006699;28;20529;-75
2022/07/12 10:51:20;;;;;;;9.13;3.45;;;;;;;16.94;91.09;99445.25;5007154;28;20057;-76
2022/07/12 10:53:50;;;;;;;4.47;2.58;;;;;;;16.97;90.37;99433.19;5006803;28;20053;-75
2022/07/12 10:56:22;;;;;;;5.47;2.50;;;;;;;17.01;90.28;99431.94;5006615;28;20050;-75
2022/07/12 10:58:53;;;;;;;9.35;2.47;;;;;;;17.03;89.22;99435.41;5006962;28;20117;-75
2022/07/12 11:01:21;;;;;;;6.22;2.42;;;;;;;17.03;89.65;99429.94;5007204;28;20128;-74
2022/07/12 11:03:50;;;;;;;4.60;2.20;;;;;;;17.06;89.76;99421.47;5008524;28;20049;-76
2022/07/12 11:06:21;;;;;;;19.23;2.88;;;;;;;17.12;89.16;99426.38;5011064;28;20527;-76
2022/07/12 11:08:49;;;;;;;5.45;2.38;;;;;;;17.16;89.18;99424.25;5011187;28;20058;-76
2022/07/12 11:11:17;;;;;;;8.52;2.47;;;;;;;17.19;88.61;99415.78;5011032;28;20537;-76
2022/07/12 11:13:45;;;;;;;3.63;2.03;;;;;;;17.17;88.79;99421.38;5010726;28;20450;-75
2022/07/12 11:16:12;;;;;;;4.80;2.20;;;;;;;17.22;88.92;99420.94;5092173;28;20556;-77
2022/07/12 11:18:40;;;;;;;3.53;1.98;;;;;;;17.24;88.11;99408.03;5097332;28;20062;-76
2022/07/12 11:21:08;;;;;;;5.68;2.28;;;;;;;17.26;88.22;99413.34;5101469;28;20040;-76
2022/07/12 11:23:36;;;;;;;4.43;1.92;;;;;;;17.28;87.17;99408.63;5100745;28;20043;-77
2022/07/12 11:26:05;;;;;;;5.03;2.20;;;;;;;17.29;85.56;99421.25;5098042;28;20044;-77
2022/07/12 11:28:33;;;;;;;8.88;2.08;;;;;;;17.30;86.66;99412.91;5100930;28;20035;-75
2022/07/12 11:31:05;;;;;;;3.35;1.90;;;;;;;17.32;86.10;99410.91;5105519;28;20044;-78
2022/07/12 11:33:34;;;;;;;8.55;2.85;;;;;;;17.34;85.04;99411.66;5105898;28;20398;-76
2022/07/12 11:36:04;;;;;;;6.07;2.20;;;;;;;17.32;85.97;99408.19;5103580;28;20405;-77